Time;durP1;ratioP1;P1;durP2;ratioP2;P2;SDS_P1;SDS_P2;PMS_P1;PMS_P2;Temp;Humidity;BMP_temperature;BMP_pressure;BME280_temperature;BME280_humidity;BME280_pressure;Samples;Min_cycle;Max_cycle;Signal;HPM_P1;HPM_P2
2021/04/19 00:00:51;;;;;;;13.43;9.70;;;8.00;87.30;;;;;;6249047;28;20077;-76
2021/04/19 00:03:52;;;;;;;12.40;9.35;;;8.00;87.60;;;;;;6248944;28;20065;-76
2021/04/19 00:06:54;;;;;;;13.13;11.07;;;7.90;87.90;;;;;;6249691;28;20136;-76
2021/04/19 00:09:55;;;;;;;16.02;10.57;;;7.80;88.20;;;;;;6248375;28;20072;-76
2021/04/19 00:12:57;;;;;;;19.00;12.32;;;7.70;88.50;;;;;;6248884;28;20065;-76
2021/04/19 00:15:58;;;;;;;15.65;11.60;;;7.70;88.60;;;;;;6249006;28;20132;-77
2021/04/19 00:19:00;;;;;;;17.02;12.82;;;7.60;89.00;;;;;;6249078;28;20085;-76
2021/04/19 00:22:01;;;;;;;13.02;10.88;;;7.50;89.30;;;;;;6248430;28;20537;-76
2021/04/19 00:25:04;;;;;;;14.30;11.40;;;7.40;89.60;;;;;;6248856;28;20073;-77
2021/04/19 00:28:07;;;;;;;16.77;10.75;;;7.30;89.90;;;;;;6248342;28;20128;-77
2021/04/19 00:31:08;;;;;;;17.05;10.93;;;7.20;90.10;;;;;;6248662;28;20067;-76
2021/04/19 00:34:10;;;;;;;12.90;10.48;;;7.10;90.30;;;;;;6247294;28;20309;-77
2021/04/19 00:37:11;;;;;;;11.40;8.70;;;7.10;90.40;;;;;;6248434;28;20045;-77
2021/04/19 00:40:15;;;;;;;12.98;10.07;;;7.10;90.60;;;;;;6247719;28;20545;-75
2021/04/19 00:43:17;;;;;;;13.93;10.73;;;7.00;90.70;;;;;;6248414;28;20187;-77
2021/04/19 00:46:19;;;;;;;11.30;9.02;;;7.00;90.80;;;;;;6248063;28;20792;-76
2021/04/19 00:49:23;;;;;;;13.13;10.27;;;7.00;90.80;;;;;;6247740;28;20080;-77
2021/04/19 00:52:25;;;;;;;13.63;11.48;;;6.90;90.80;;;;;;6247920;28;20128;-77
2021/04/19 00:55:26;;;;;;;12.80;11.20;;;6.90;90.90;;;;;;6248209;28;20053;-76
2021/04/19 00:58:33;;;;;;;12.38;8.60;;;7.00;90.90;;;;;;6245218;28;20138;-77
2021/04/19 01:01:35;;;;;;;13.43;8.55;;;7.00;90.90;;;;;;6223119;28;20076;-77
2021/04/19 01:04:36;;;;;;;10.27;8.73;;;6.90;90.90;;;;;;6222779;28;20580;-76
2021/04/19 01:07:37;;;;;;;12.27;10.82;;;7.00;91.00;;;;;;6223299;28;20136;-79
2021/04/19 01:10:39;;;;;;;14.15;9.85;;;7.00;91.00;;;;;;6223018;28;20204;-76
2021/04/19 01:13:41;;;;;;;28.02;12.23;;;7.00;91.10;;;;;;6222787;28;20418;-77
2021/04/19 01:16:42;;;;;;;15.73;11.10;;;7.00;91.00;;;;;;6222899;28;20137;-76
2021/04/19 01:19:44;;;;;;;14.98;13.40;;;7.10;91.30;;;;;;6222201;28;20463;-76
2021/04/19 01:22:46;;;;;;;15.82;13.18;;;7.10;91.10;;;;;;6224495;28;20463;-79
2021/04/19 01:25:48;;;;;;;15.00;13.13;;;7.20;91.10;;;;;;6228464;28;20056;-78
2021/04/19 01:28:50;;;;;;;16.35;11.75;;;7.20;91.10;;;;;;6228486;28;20070;-78
2021/04/19 01:31:51;;;;;;;13.90;11.73;;;7.30;91.10;;;;;;6226715;28;20052;-77
2021/04/19 01:34:52;;;;;;;11.60;10.35;;;7.30;91.10;;;;;;6227978;28;20054;-78
2021/04/19 01:37:55;;;;;;;13.30;10.65;;;7.40;91.10;;;;;;6226869;28;20060;-78
2021/04/19 01:40:57;;;;;;;15.13;12.80;;;7.40;91.00;;;;;;6227755;28;20128;-78
2021/04/19 01:43:58;;;;;;;16.42;12.82;;;7.50;90.90;;;;;;6227699;28;20046;-77
2021/04/19 01:47:00;;;;;;;16.30;12.10;;;7.50;90.90;;;;;;6227242;28;20180;-77
2021/04/19 01:50:07;;;;;;;15.00;11.65;;;7.60;90.90;;;;;;6225270;28;20894;-78
2021/04/19 01:53:09;;;;;;;17.35;11.77;;;7.60;90.90;;;;;;6225899;28;20191;-78
2021/04/19 01:56:10;;;;;;;14.30;12.02;;;7.60;90.80;;;;;;6228647;28;20046;-78
2021/04/19 01:59:12;;;;;;;13.15;10.82;;;7.60;90.80;;;;;;6227860;28;20073;-77
2021/04/19 02:02:19;;;;;;;15.15;11.98;;;7.60;91.00;;;;;;6226466;28;20042;-78
2021/04/19 02:05:28;;;;;;;15.13;10.55;;;7.60;90.80;;;;;;6228493;28;20053;-78
2021/04/19 02:08:38;;;;;;;15.23;12.27;;;7.50;90.80;;;;;;6227198;28;20049;-78
2021/04/19 02:11:52;;;;;;;14.32;12.85;;;7.60;90.80;;;;;;6228207;28;20081;-78
2021/04/19 02:15:04;;;;;;;15.30;13.60;;;7.60;90.70;;;;;;6228161;28;20056;-78
2021/04/19 02:18:14;;;;;;;14.45;12.25;;;7.60;90.60;;;;;;6227223;28;20049;-80
2021/04/19 02:21:22;;;;;;;16.50;11.15;;;7.70;90.50;;;;;;6228729;28;20066;-78
2021/04/19 02:24:26;;;;;;;16.48;12.30;;;7.70;90.40;;;;;;6229044;28;20136;-78
2021/04/19 02:27:33;;;;;;;17.40;12.27;;;7.70;90.30;;;;;;6230156;28;20077;-79
2021/04/19 02:30:39;;;;;;;15.80;12.50;;;7.80;90.20;;;;;;6227851;28;20045;-78
2021/04/19 02:33:43;;;;;;;17.77;12.30;;;7.90;90.20;;;;;;6238859;28;20124;-78
2021/04/19 02:36:47;;;;;;;16.70;13.02;;;7.90;90.10;;;;;;6256482;28;20049;-78
2021/04/19 02:39:51;;;;;;;16.67;11.88;;;7.90;90.00;;;;;;6245900;28;20120;-77
2021/04/19 02:42:54;;;;;;;14.45;12.65;;;8.00;89.90;;;;;;6246595;28;20582;-77
2021/04/19 02:45:56;;;;;;;17.80;13.63;;;8.00;89.80;;;;;;6246480;28;20049;-78
2021/04/19 02:48:59;;;;;;;13.48;12.05;;;8.00;89.90;;;;;;6246494;28;20175;-78
2021/04/19 02:52:03;;;;;;;19.08;14.00;;;8.00;90.40;;;;;;6246347;28;20148;-77
2021/04/19 02:55:09;;;;;;;14.82;10.50;;;8.00;90.30;;;;;;6246907;28;20057;-78
2021/04/19 02:58:13;;;;;;;15.75;12.07;;;7.90;90.30;;;;;;6248069;28;20041;-78
2021/04/19 03:01:22;;;;;;;19.35;12.05;;;8.00;90.40;;;;;;6254700;28;20045;-78
2021/04/19 03:04:26;;;;;;;13.45;12.15;;;8.00;90.60;;;;;;6251047;28;20060;-77
2021/04/19 03:07:33;;;;;;;16.77;11.82;;;8.00;90.40;;;;;;6250599;28;20057;-78
2021/04/19 03:10:39;;;;;;;16.23;11.75;;;8.00;90.40;;;;;;6250940;28;20049;-77
2021/04/19 03:13:43;;;;;;;26.00;13.18;;;8.10;90.50;;;;;;6250696;28;20077;-76
2021/04/19 03:16:49;;;;;;;17.13;11.50;;;8.20;90.80;;;;;;6250187;28;20103;-77
2021/04/19 03:19:58;;;;;;;18.02;13.65;;;8.20;90.50;;;;;;6250277;28;20041;-77
2021/04/19 03:23:00;;;;;;;15.05;11.93;;;8.10;90.80;;;;;;6250494;28;20144;-77
2021/04/19 03:26:04;;;;;;;12.82;11.35;;;8.10;91.00;;;;;;6250199;28;20065;-77
2021/04/19 03:29:07;;;;;;;14.50;11.40;;;8.00;91.10;;;;;;6249798;28;20072;-77
2021/04/19 03:32:12;;;;;;;16.92;12.63;;;8.00;91.20;;;;;;6249767;28;20388;-77
2021/04/19 03:35:17;;;;;;;14.85;11.93;;;8.00;91.10;;;;;;6250144;28;20415;-75
2021/04/19 03:38:21;;;;;;;17.45;11.15;;;7.90;91.00;;;;;;6249392;28;20100;-77
2021/04/19 03:41:23;;;;;;;17.17;12.18;;;7.90;91.10;;;;;;6249876;28;20047;-78
2021/04/19 03:44:28;;;;;;;22.77;13.50;;;7.90;91.30;;;;;;6249747;28;20171;-77
2021/04/19 03:47:32;;;;;;;21.73;12.25;;;7.80;91.30;;;;;;6250034;28;20148;-77
2021/04/19 03:50:37;;;;;;;17.50;15.50;;;7.80;91.50;;;;;;6249937;28;20083;-77
2021/04/19 03:53:39;;;;;;;14.25;12.30;;;7.80;91.80;;;;;;6249560;28;20084;-77
2021/04/19 03:56:43;;;;;;;15.68;13.10;;;7.70;92.10;;;;;;6249896;28;20041;-78
2021/04/19 03:59:47;;;;;;;16.83;12.65;;;7.70;92.40;;;;;;6248736;28;20124;-77
2021/04/19 04:02:53;;;;;;;17.98;14.15;;;7.70;92.50;;;;;;6250542;28;20144;-77
2021/04/19 04:05:55;;;;;;;15.57;13.35;;;7.80;92.60;;;;;;6249555;28;20510;-77
2021/04/19 04:08:59;;;;;;;16.98;13.95;;;7.70;92.80;;;;;;6249173;28;20132;-77
2021/04/19 04:12:02;;;;;;;21.17;13.02;;;7.80;92.90;;;;;;6249311;28;20533;-77
2021/04/19 04:15:05;;;;;;;15.80;13.48;;;7.80;93.20;;;;;;6249979;28;20054;-77
2021/04/19 04:18:07;;;;;;;19.00;13.30;;;7.80;93.40;;;;;;6248656;28;20045;-77
2021/04/19 04:21:08;;;;;;;17.95;14.45;;;7.70;93.60;;;;;;6257021;28;20118;-77
2021/04/19 04:24:10;;;;;;;20.55;15.55;;;7.70;93.90;;;;;;6267178;28;20075;-77
2021/04/19 04:27:13;;;;;;;20.38;14.02;;;7.70;94.10;;;;;;6273764;28;20099;-77
2021/04/19 04:30:15;;;;;;;26.35;14.88;;;7.70;94.40;;;;;;6273202;28;20073;-77
2021/04/19 04:33:16;;;;;;;21.60;15.77;;;7.70;94.70;;;;;;6273302;28;20533;-77
2021/04/19 04:36:18;;;;;;;19.02;14.35;;;7.70;94.80;;;;;;6273567;28;20071;-76
2021/04/19 04:39:19;;;;;;;23.38;17.15;;;7.60;94.90;;;;;;6273304;28;20140;-77
2021/04/19 04:42:25;;;;;;;20.40;16.67;;;7.60;95.20;;;;;;6273049;28;20127;-77
2021/04/19 04:45:26;;;;;;;21.25;15.85;;;7.50;95.70;;;;;;6273473;28;20437;-76
2021/04/19 04:48:47;;;;;;;17.63;15.50;;;7.50;96.20;;;;;;6274495;28;20132;-77
2021/04/19 04:51:50;;;;;;;20.60;16.95;;;7.40;96.50;;;;;;6274585;28;20041;-76
2021/04/19 04:54:51;;;;;;;24.33;16.88;;;7.30;96.90;;;;;;6273986;28;20049;-77
2021/04/19 04:57:54;;;;;;;23.33;17.50;;;7.30;97.20;;;;;;6274385;28;20048;-75
2021/04/19 05:00:57;;;;;;;24.50;17.55;;;7.30;97.50;;;;;;6273852;28;20037;-75
2021/04/19 05:04:00;;;;;;;20.90;17.70;;;7.40;97.70;;;;;;6273876;28;20120;-75
2021/04/19 05:07:02;;;;;;;21.73;17.15;;;7.40;97.90;;;;;;6273206;28;20510;-78
2021/04/19 05:10:05;;;;;;;24.45;16.45;;;7.40;97.90;;;;;;6272301;28;20041;-78
2021/04/19 05:13:12;;;;;;;20.85;16.42;;;7.40;98.10;;;;;;6273359;28;20128;-77
2021/04/19 05:16:24;;;;;;;22.42;17.40;;;7.50;98.20;;;;;;6272403;28;20065;-77
2021/04/19 05:19:25;;;;;;;25.92;17.55;;;7.50;98.20;;;;;;6271900;28;20094;-77
2021/04/19 05:22:26;;;;;;;26.02;15.77;;;7.50;98.30;;;;;;6272416;28;20079;-77
2021/04/19 05:25:28;;;;;;;21.90;17.85;;;7.60;98.50;;;;;;6272499;28;20045;-77
2021/04/19 05:28:30;;;;;;;20.40;18.30;;;7.50;98.40;;;;;;6272684;28;20538;-77
2021/04/19 05:31:32;;;;;;;21.20;17.95;;;7.50;98.60;;;;;;6272873;28;20049;-77
2021/04/19 05:34:33;;;;;;;23.17;16.52;;;7.60;98.90;;;;;;6272579;28;20049;-77
2021/04/19 05:37:35;;;;;;;25.73;18.15;;;7.60;99.10;;;;;;6272071;28;20141;-77
2021/04/19 05:40:37;;;;;;;20.17;17.85;;;7.60;99.30;;;;;;6271394;28;20049;-77
2021/04/19 05:43:40;;;;;;;23.00;17.92;;;7.60;99.30;;;;;;6271671;28;20113;-77
2021/04/19 05:46:43;;;;;;;26.67;17.52;;;7.60;99.40;;;;;;6272259;28;20122;-77
2021/04/19 05:49:45;;;;;;;25.40;20.75;;;7.60;99.70;;;;;;6271521;28;20040;-77
2021/04/19 05:52:48;;;;;;;24.70;16.38;;;7.60;99.80;;;;;;6271571;28;20065;-77
2021/04/19 05:55:54;;;;;;;26.77;19.25;;;7.60;99.90;;;;;;6271869;28;20071;-77
2021/04/19 05:59:03;;;;;;;21.80;16.67;;;7.60;99.90;;;;;;6271624;28;20513;-77
2021/04/19 06:02:06;;;;;;;24.00;18.98;;;7.60;99.90;;;;;;6270624;28;20487;-77
2021/04/19 06:05:18;;;;;;;19.52;15.77;;;7.60;99.90;;;;;;6244635;28;20073;-77
2021/04/19 06:08:23;;;;;;;23.40;19.10;;;7.70;99.90;;;;;;6271264;28;20072;-77
2021/04/19 06:11:30;;;;;;;20.00;17.38;;;7.70;99.90;;;;;;6271371;28;20333;-77
2021/04/19 06:14:35;;;;;;;21.00;16.95;;;7.80;99.90;;;;;;6272277;28;20126;-77
2021/04/19 06:17:39;;;;;;;22.83;17.23;;;7.70;99.90;;;;;;6269469;28;20571;-78
2021/04/19 06:20:42;;;;;;;24.40;18.77;;;7.80;99.90;;;;;;6270243;28;20128;-77
2021/04/19 06:23:43;;;;;;;23.77;18.27;;;7.80;99.90;;;;;;6271062;28;20049;-77
2021/04/19 06:26:45;;;;;;;23.80;17.95;;;7.90;99.90;;;;;;6271598;28;20464;-78
2021/04/19 06:29:47;;;;;;;29.00;18.35;;;7.90;99.90;;;;;;6270521;28;20144;-78
2021/04/19 06:32:50;;;;;;;20.63;17.27;;;8.00;99.90;;;;;;6274356;28;20492;-77
2021/04/19 06:35:51;;;;;;;20.15;17.98;;;8.00;99.70;;;;;;6275706;28;20136;-77
2021/04/19 06:38:53;;;;;;;28.70;18.25;;;8.00;99.60;;;;;;6261966;28;20095;-77
2021/04/19 06:41:54;;;;;;;24.38;17.45;;;8.00;99.70;;;;;;6251171;28;20073;-77
2021/04/19 06:44:59;;;;;;;30.58;19.67;;;8.00;99.60;;;;;;6250656;28;20433;-77
2021/04/19 06:48:03;;;;;;;28.98;18.63;;;8.00;99.80;;;;;;6259819;28;20572;-78
2021/04/19 06:51:06;;;;;;;23.05;17.15;;;8.10;99.80;;;;;;6271042;28;20079;-77
2021/04/19 06:54:09;;;;;;;23.05;18.77;;;8.10;99.70;;;;;;6276213;28;20053;-78
2021/04/19 06:57:15;;;;;;;27.60;19.98;;;8.10;99.80;;;;;;6278675;28;20506;-78
2021/04/19 07:00:19;;;;;;;23.52;17.85;;;8.10;99.60;;;;;;6278110;28;20064;-77
2021/04/19 07:03:21;;;;;;;27.08;20.13;;;8.20;99.60;;;;;;6283826;28;20053;-77
2021/04/19 07:06:27;;;;;;;22.80;19.58;;;8.20;99.80;;;;;;6275634;28;20568;-78
2021/04/19 07:09:33;;;;;;;24.92;19.42;;;8.20;99.70;;;;;;6275016;28;20051;-78
2021/04/19 07:12:36;;;;;;;27.73;18.95;;;8.30;99.80;;;;;;6275505;28;20049;-78
2021/04/19 07:15:41;;;;;;;25.38;18.50;;;8.30;99.50;;;;;;6276446;28;20140;-77
2021/04/19 07:18:43;;;;;;;28.30;20.95;;;8.40;99.50;;;;;;6285557;28;20072;-78
2021/04/19 07:21:45;;;;;;;27.48;19.92;;;8.50;99.40;;;;;;6282611;28;20048;-77
2021/04/19 07:24:46;;;;;;;29.92;19.13;;;8.60;99.40;;;;;;6277228;28;20127;-77
2021/04/19 07:27:48;;;;;;;26.35;16.30;;;8.50;99.30;;;;;;6276537;28;20123;-77
2021/04/19 07:30:59;;;;;;;27.13;18.00;;;8.60;99.20;;;;;;6275981;28;20052;-76
2021/04/19 07:34:15;;;;;;;28.00;18.17;;;8.60;99.10;;;;;;6275456;28;20068;-77
2021/04/19 07:37:16;;;;;;;23.30;18.63;;;8.60;98.80;;;;;;6276033;28;20503;-77
2021/04/19 07:40:28;;;;;;;22.40;17.42;;;8.60;99.00;;;;;;6260168;28;20128;-76
2021/04/19 07:43:36;;;;;;;20.27;17.52;;;8.70;98.70;;;;;;6274018;28;20036;-77
2021/04/19 07:46:39;;;;;;;24.38;17.95;;;8.70;98.70;;;;;;6282117;28;20060;-78
2021/04/19 07:49:40;;;;;;;24.35;17.58;;;8.70;98.70;;;;;;6280326;28;20072;-79
2021/04/19 07:52:53;;;;;;;23.00;18.27;;;8.70;98.40;;;;;;6280793;28;20060;-77
2021/04/19 07:55:56;;;;;;;22.92;16.05;;;8.70;98.30;;;;;;6281078;28;20060;-78
2021/04/19 07:58:57;;;;;;;24.02;17.80;;;8.70;97.80;;;;;;6280663;28;20033;-78
2021/04/19 08:02:01;;;;;;;18.10;16.02;;;8.70;97.90;;;;;;6279909;28;20062;-78
2021/04/19 08:05:05;;;;;;;25.85;17.02;;;8.70;97.90;;;;;;6279558;28;20068;-79
2021/04/19 08:08:07;;;;;;;18.02;16.17;;;8.80;97.70;;;;;;6252294;28;20908;-76
2021/04/19 08:11:11;;;;;;;18.17;16.23;;;8.80;97.40;;;;;;6250348;28;20132;-76
2021/04/19 08:14:12;;;;;;;17.75;14.98;;;8.80;97.20;;;;;;6249569;28;20132;-76
2021/04/19 08:17:14;;;;;;;22.65;15.55;;;8.80;97.00;;;;;;6249442;28;20128;-76
2021/04/19 08:20:17;;;;;;;21.83;15.95;;;8.80;96.90;;;;;;6248875;28;20056;-77
2021/04/19 08:23:19;;;;;;;22.02;14.20;;;8.80;96.80;;;;;;6249178;28;20053;-77
2021/04/19 08:26:20;;;;;;;18.80;14.60;;;8.80;96.70;;;;;;6248546;28;20175;-77
2021/04/19 08:29:39;;;;;;;17.58;15.05;;;8.80;96.60;;;;;;6247930;28;20132;-77
2021/04/19 08:32:45;;;;;;;21.38;15.52;;;8.80;96.60;;;;;;6249068;28;20565;-77
2021/04/19 08:35:47;;;;;;;22.60;17.08;;;8.80;96.40;;;;;;6256199;28;20061;-79
2021/04/19 08:38:49;;;;;;;20.73;15.60;;;8.80;96.50;;;;;;6250345;28;20404;-78
2021/04/19 08:41:51;;;;;;;21.33;14.82;;;8.80;96.10;;;;;;6243730;28;20537;-78
2021/04/19 08:44:56;;;;;;;22.55;15.75;;;8.90;96.30;;;;;;6250076;28;20073;-79
2021/04/19 08:47:58;;;;;;;19.45;15.38;;;8.90;95.90;;;;;;6250616;28;20579;-78
2021/04/19 08:51:03;;;;;;;19.23;15.45;;;8.90;96.00;;;;;;6250354;28;20132;-78
2021/04/19 08:54:05;;;;;;;21.10;17.15;;;8.90;95.80;;;;;;6250338;28;20069;-80
2021/04/19 08:57:06;;;;;;;23.88;16.80;;;8.90;95.70;;;;;;6250354;28;20088;-79
2021/04/19 09:00:09;;;;;;;19.98;14.63;;;8.90;95.90;;;;;;6250410;28;20037;-79
2021/04/19 09:03:16;;;;;;;18.40;14.95;;;9.00;95.90;;;;;;6251238;28;20057;-78
2021/04/19 09:06:17;;;;;;;19.48;14.00;;;8.90;95.60;;;;;;6251821;28;20136;-79
2021/04/19 09:09:35;;;;;;;19.83;14.77;;;9.00;95.40;;;;;;6250483;28;20105;-78
2021/04/19 09:12:37;;;;;;;19.02;14.77;;;9.10;95.00;;;;;;6251274;28;20065;-79
2021/04/19 09:15:40;;;;;;;17.02;13.60;;;9.10;94.50;;;;;;6251573;28;20136;-78
2021/04/19 09:18:44;;;;;;;18.23;14.18;;;9.20;94.00;;;;;;6250726;28;20053;-78
2021/04/19 09:21:49;;;;;;;16.35;12.93;;;9.20;93.60;;;;;;6251699;28;20041;-78
2021/04/19 09:25:00;;;;;;;30.23;16.23;;;9.30;93.60;;;;;;6251584;28;20078;-79
2021/04/19 09:28:02;;;;;;;19.23;15.50;;;9.30;93.30;;;;;;6252382;28;20053;-78
2021/04/19 09:31:03;;;;;;;16.45;13.45;;;9.40;93.30;;;;;;6251258;28;20150;-78
2021/04/19 09:34:13;;;;;;;15.85;13.75;;;9.40;92.90;;;;;;6250187;28;20069;-78
2021/04/19 09:37:16;;;;;;;21.23;14.60;;;9.40;92.40;;;;;;6250884;28;20081;-79
2021/04/19 09:40:23;;;;;;;14.60;13.05;;;9.50;92.50;;;;;;6257134;28;20065;-79
2021/04/19 09:43:32;;;;;;;16.73;14.02;;;9.40;92.60;;;;;;6247612;28;20054;-78
2021/04/19 09:46:33;;;;;;;18.00;13.95;;;9.50;92.40;;;;;;6252155;28;20089;-79
2021/04/19 09:49:36;;;;;;;14.50;12.85;;;9.50;92.10;;;;;;6250598;28;20053;-78
2021/04/19 09:52:38;;;;;;;18.98;13.38;;;9.50;92.10;;;;;;6252033;28;20065;-79
2021/04/19 09:55:43;;;;;;;18.63;13.02;;;9.60;91.90;;;;;;6251596;28;20089;-79
2021/04/19 09:58:44;;;;;;;17.50;13.80;;;9.60;91.50;;;;;;6251581;28;20057;-79
2021/04/19 10:01:47;;;;;;;18.35;14.18;;;9.60;91.20;;;;;;6251226;28;20069;-79
2021/04/19 10:04:51;;;;;;;17.42;13.95;;;9.70;91.30;;;;;;6250861;28;20053;-79
2021/04/19 10:07:53;;;;;;;20.40;14.45;;;9.90;91.30;;;;;;6253645;28;20091;-79
2021/04/19 10:10:56;;;;;;;23.15;14.52;;;10.10;90.50;;;;;;6255638;28;20052;-78
2021/04/19 10:14:05;;;;;;;20.83;16.10;;;10.30;89.00;;;;;;6255951;28;20124;-79
2021/04/19 10:17:16;;;;;;;21.90;17.25;;;10.40;87.80;;;;;;6256533;28;20047;-78
2021/04/19 10:20:22;;;;;;;24.95;16.40;;;10.50;87.60;;;;;;6255694;28;20046;-79
2021/04/19 10:23:32;;;;;;;17.10;13.05;;;10.70;86.10;;;;;;6256396;28;20132;-79
2021/04/19 10:26:37;;;;;;;17.83;13.88;;;10.90;85.10;;;;;;6255374;28;20503;-79
2021/04/19 10:29:38;;;;;;;15.48;13.52;;;11.10;83.50;;;;;;6255049;28;20045;-79
2021/04/19 10:32:41;;;;;;;17.83;12.35;;;11.20;81.60;;;;;;6255519;28;20519;-78
2021/04/19 10:35:43;;;;;;;15.73;12.57;;;11.30;81.20;;;;;;6255314;28;20053;-79
2021/04/19 10:38:46;;;;;;;17.98;14.32;;;11.50;80.40;;;;;;6255607;28;20214;-79
2021/04/19 10:41:49;;;;;;;18.85;13.52;;;11.80;79.20;;;;;;6255072;28;20076;-79
2021/04/19 10:44:51;;;;;;;14.40;11.65;;;12.00;78.00;;;;;;6248969;28;20152;-79
2021/04/19 10:47:52;;;;;;;18.38;12.27;;;12.10;74.70;;;;;;6255159;28;20573;-79
2021/04/19 10:50:56;;;;;;;15.30;12.13;;;12.20;74.20;;;;;;6255250;28;20118;-78
2021/04/19 10:53:59;;;;;;;14.25;11.18;;;12.20;74.30;;;;;;6255453;28;20114;-79
2021/04/19 10:57:02;;;;;;;18.25;12.43;;;12.30;74.50;;;;;;6255320;28;20140;-79
2021/04/19 11:00:05;;;;;;;20.67;13.88;;;12.50;72.00;;;;;;6255710;28;20124;-79
2021/04/19 11:03:07;;;;;;;14.40;11.95;;;12.60;71.10;;;;;;6255736;28;20111;-79
2021/04/19 11:06:10;;;;;;;16.77;12.18;;;12.60;70.40;;;;;;6256551;28;20046;-79
2021/04/19 11:09:18;;;;;;;12.43;10.73;;;12.80;70.20;;;;;;6255144;28;20125;-79
2021/04/19 11:12:19;;;;;;;13.83;12.43;;;12.90;68.80;;;;;;6256006;28;20168;-79
2021/04/19 11:15:27;;;;;;;14.60;11.20;;;13.00;67.90;;;;;;6232550;28;20505;-78
2021/04/19 11:18:28;;;;;;;15.25;11.70;;;13.00;68.30;;;;;;6227273;28;20181;-79
2021/04/19 11:21:32;;;;;;;14.68;11.48;;;13.20;67.30;;;;;;6227629;28;20053;-78
2021/04/19 11:24:37;;;;;;;16.85;12.15;;;13.30;67.00;;;;;;6227448;28;20511;-78
2021/04/19 11:27:39;;;;;;;15.98;12.70;;;13.40;66.70;;;;;;6227249;28;20049;-77
2021/04/19 11:30:41;;;;;;;19.15;13.68;;;13.40;65.70;;;;;;6226490;28;20494;-78
2021/04/19 11:33:42;;;;;;;14.07;12.00;;;13.40;65.80;;;;;;6227214;28;20129;-78
2021/04/19 11:36:47;;;;;;;17.00;13.13;;;13.30;66.00;;;;;;6228683;28;20132;-78
2021/04/19 11:39:48;;;;;;;60.85;54.75;;;13.30;66.30;;;;;;6227873;28;20049;-78
2021/04/19 11:42:50;;;;;;;17.38;13.50;;;13.30;65.90;;;;;;6229149;28;20129;-79
2021/04/19 11:46:06;;;;;;;19.13;13.73;;;13.40;66.30;;;;;;6248979;28;20192;-78
2021/04/19 11:49:13;;;;;;;17.50;12.50;;;13.50;66.10;;;;;;6251355;28;20049;-78
2021/04/19 11:52:15;;;;;;;29.95;27.33;;;13.50;64.90;;;;;;6253600;28;20124;-77
2021/04/19 11:55:17;;;;;;;18.33;12.25;;;13.50;65.10;;;;;;6251421;28;20102;-78
2021/04/19 11:58:18;;;;;;;19.70;17.65;;;13.50;64.20;;;;;;6249970;28;20179;-78
2021/04/19 12:01:21;;;;;;;17.75;15.30;;;13.50;64.10;;;;;;6252266;28;20048;-78
2021/04/19 12:04:23;;;;;;;17.77;15.82;;;13.60;64.50;;;;;;6248907;28;20056;-78
2021/04/19 12:07:25;;;;;;;19.60;15.65;;;13.60;64.10;;;;;;6259656;28;20152;-79
2021/04/19 12:10:26;;;;;;;18.20;14.63;;;13.60;64.40;;;;;;6250815;28;20499;-78
2021/04/19 12:13:28;;;;;;;20.52;14.40;;;13.60;64.20;;;;;;6251067;28;20140;-78
2021/04/19 12:16:30;;;;;;;22.75;18.23;;;13.60;64.00;;;;;;6250354;28;20095;-78
2021/04/19 12:19:31;;;;;;;16.95;13.77;;;13.60;64.20;;;;;;6251852;28;20060;-78
2021/04/19 12:22:34;;;;;;;16.25;12.68;;;13.50;63.90;;;;;;6252469;28;20053;-79
2021/04/19 12:25:35;;;;;;;19.77;12.50;;;13.50;63.90;;;;;;6251827;28;20140;-79
2021/04/19 12:28:36;;;;;;;15.05;12.48;;;13.40;63.90;;;;;;6249875;28;20120;-78
2021/04/19 12:31:39;;;;;;;20.70;14.40;;;13.30;64.30;;;;;;6249923;28;20084;-79
2021/04/19 12:34:40;;;;;;;16.77;11.82;;;13.30;64.70;;;;;;6251400;28;20053;-77
2021/04/19 12:37:42;;;;;;;16.80;11.80;;;13.30;64.90;;;;;;6249093;28;20095;-78
2021/04/19 12:40:44;;;;;;;15.90;13.55;;;13.30;64.10;;;;;;6247235;28;20129;-77
2021/04/19 12:43:45;;;;;;;20.30;14.02;;;13.50;64.00;;;;;;6248193;28;20069;-78
2021/04/19 12:46:47;;;;;;;20.15;11.32;;;13.60;63.70;;;;;;6237608;28;20112;-78
2021/04/19 12:49:48;;;;;;;19.70;13.35;;;13.80;63.20;;;;;;6224420;28;20133;-78
2021/04/19 12:52:50;;;;;;;14.45;12.93;;;14.00;62.20;;;;;;6224628;28;20592;-78
2021/04/19 12:55:52;;;;;;;16.90;12.35;;;14.00;61.80;;;;;;6225031;28;20065;-78
2021/04/19 12:58:53;;;;;;;17.08;13.57;;;14.00;62.80;;;;;;6225107;28;20136;-77
2021/04/19 13:01:55;;;;;;;16.38;12.82;;;14.00;62.50;;;;;;6224776;28;20134;-78
2021/04/19 13:04:56;;;;;;;15.45;13.10;;;14.10;62.20;;;;;;6227355;28;20459;-78
2021/04/19 13:07:58;;;;;;;16.10;12.45;;;14.10;62.40;;;;;;6226484;28;20069;-79
2021/04/19 13:11:00;;;;;;;19.98;12.20;;;14.10;61.80;;;;;;6226469;28;20077;-78
2021/04/19 13:14:01;;;;;;;18.02;13.18;;;14.30;62.30;;;;;;6223736;28;20068;-79
2021/04/19 13:17:03;;;;;;;16.83;11.60;;;14.30;61.40;;;;;;6226133;28;20046;-79
2021/04/19 13:20:06;;;;;;;18.20;14.38;;;14.30;62.30;;;;;;6224944;28;20049;-79
2021/04/19 13:23:08;;;;;;;20.02;13.38;;;14.20;61.60;;;;;;6225672;28;20492;-78
2021/04/19 13:26:11;;;;;;;20.70;13.68;;;14.20;61.80;;;;;;6227971;28;20074;-78
2021/04/19 13:29:13;;;;;;;18.52;14.32;;;14.10;61.80;;;;;;6223686;28;20057;-78
2021/04/19 13:32:14;;;;;;;21.55;15.38;;;13.80;62.90;;;;;;6225366;28;20121;-78
2021/04/19 13:35:16;;;;;;;19.80;13.73;;;13.50;63.80;;;;;;6225772;28;20080;-79
2021/04/19 13:38:18;;;;;;;16.08;12.57;;;13.40;65.00;;;;;;6225727;28;20126;-79
2021/04/19 13:41:20;;;;;;;22.13;14.75;;;13.30;65.90;;;;;;6225014;28;20114;-79
2021/04/19 13:44:21;;;;;;;15.35;13.43;;;13.30;65.50;;;;;;6226824;28;20096;-79
2021/04/19 13:47:22;;;;;;;14.80;11.32;;;13.40;66.10;;;;;;6236091;28;20080;-79
2021/04/19 13:50:24;;;;;;;14.05;12.13;;;13.60;65.30;;;;;;6250480;28;20454;-79
2021/04/19 13:53:26;;;;;;;17.38;12.32;;;13.80;64.80;;;;;;6248232;28;20045;-78
2021/04/19 13:56:27;;;;;;;20.02;13.27;;;14.10;64.00;;;;;;6246974;28;20132;-78
2021/04/19 13:59:29;;;;;;;22.58;11.77;;;14.40;63.50;;;;;;6246554;28;20076;-77
2021/04/19 14:02:30;;;;;;;18.48;13.30;;;14.80;62.50;;;;;;6248039;28;20077;-78
2021/04/19 14:05:32;;;;;;;14.85;8.75;;;15.10;61.80;;;;;;6248291;28;20461;-79
2021/04/19 14:08:34;;;;;;;20.17;12.40;;;15.40;62.70;;;;;;6248883;28;20129;-79
2021/04/19 14:11:36;;;;;;;15.52;12.55;;;15.70;61.50;;;;;;6247538;28;20084;-78
2021/04/19 14:14:37;;;;;;;19.65;12.73;;;15.80;60.20;;;;;;6267563;28;20114;-78
2021/04/19 14:17:39;;;;;;;15.88;11.50;;;16.00;59.40;;;;;;6273856;28;20137;-78
2021/04/19 14:20:40;;;;;;;14.00;10.88;;;16.20;59.10;;;;;;6272483;28;20077;-75
2021/04/19 14:23:43;;;;;;;15.40;11.07;;;16.40;57.30;;;;;;6273385;28;20049;-79
2021/04/19 14:26:44;;;;;;;19.00;12.30;;;16.50;56.80;;;;;;6273763;28;20076;-78
2021/04/19 14:29:47;;;;;;;20.70;14.32;;;16.50;57.00;;;;;;6272084;28;20114;-78
2021/04/19 14:32:48;;;;;;;15.48;12.13;;;16.50;56.60;;;;;;6273357;28;20076;-78
2021/04/19 14:35:51;;;;;;;19.48;13.02;;;16.40;57.00;;;;;;6275216;22;20124;-79
2021/04/19 14:38:54;;;;;;;13.32;11.80;;;16.50;56.20;;;;;;6254259;28;20045;-81
2021/04/19 14:41:57;;;;;;;15.50;12.25;;;16.50;56.60;;;;;;6251215;28;20092;-79
2021/04/19 14:44:58;;;;;;;17.33;12.60;;;16.40;56.10;;;;;;6250902;28;20107;-80
2021/04/19 14:48:00;;;;;;;14.25;12.15;;;16.30;56.30;;;;;;6244300;28;20072;-80
2021/04/19 14:51:01;;;;;;;13.88;10.35;;;16.20;57.40;;;;;;6254801;28;20051;-79
2021/04/19 14:54:04;;;;;;;14.77;12.35;;;16.30;56.70;;;;;;6254848;28;20092;-78
2021/04/19 14:57:07;;;;;;;16.45;12.15;;;16.40;56.00;;;;;;6253482;28;20403;-78
2021/04/19 15:00:10;;;;;;;14.00;10.88;;;16.40;56.30;;;;;;6252045;28;20091;-78
2021/04/19 15:03:11;;;;;;;16.67;12.05;;;16.70;56.50;;;;;;6252448;28;20053;-78
2021/04/19 15:06:13;;;;;;;15.55;12.52;;;16.90;54.50;;;;;;6254496;28;20041;-78
2021/04/19 15:09:17;;;;;;;14.27;11.30;;;17.10;54.40;;;;;;6253478;28;20571;-79
2021/04/19 15:12:18;;;;;;;15.55;11.80;;;17.00;54.40;;;;;;6255983;28;20042;-79
2021/04/19 15:15:22;;;;;;;15.15;11.80;;;16.80;54.60;;;;;;6259076;28;20052;-78
2021/04/19 15:18:23;;;;;;;15.65;11.85;;;16.60;54.70;;;;;;6262686;28;20073;-79
2021/04/19 15:21:25;;;;;;;13.27;11.25;;;16.40;55.10;;;;;;6259403;28;20191;-79
2021/04/19 15:24:27;;;;;;;16.70;12.43;;;16.20;55.00;;;;;;6259038;28;20053;-78
2021/04/19 15:27:29;;;;;;;14.95;11.82;;;16.10;55.60;;;;;;6255078;28;20164;-78
2021/04/19 15:30:30;;;;;;;14.23;12.50;;;15.90;56.40;;;;;;6255070;28;20140;-78
2021/04/19 15:33:32;;;;;;;17.63;13.23;;;15.90;56.80;;;;;;6252641;28;20054;-78
2021/04/19 15:36:34;;;;;;;13.02;10.88;;;15.90;56.60;;;;;;6252152;28;20084;-78